sensor_id;sensor_type;location;lat;lon;timestamp;P1;durP1;ratioP1;P2;durP2;ratioP2
72575;SDS011;60613;48.658;2.328;2022-08-18T00:01:18;3.33;;;1.40;;
72575;SDS011;60613;48.658;2.328;2022-08-18T00:03:46;4.30;;;1.50;;
72575;SDS011;60613;48.658;2.328;2022-08-18T00:06:13;2.83;;;1.30;;
72575;SDS011;60613;48.658;2.328;2022-08-18T00:08:39;3.67;;;1.40;;
72575;SDS011;60613;48.658;2.328;2022-08-18T00:11:04;3.30;;;1.30;;
72575;SDS011;60613;48.658;2.328;2022-08-18T00:13:31;3.88;;;1.63;;
72575;SDS011;60613;48.658;2.328;2022-08-18T00:15:57;3.25;;;1.38;;
72575;SDS011;60613;48.658;2.328;2022-08-18T00:18:22;3.25;;;1.30;;
72575;SDS011;60613;48.658;2.328;2022-08-18T00:20:48;3.40;;;1.37;;
72575;SDS011;60613;48.658;2.328;2022-08-18T00:23:14;2.95;;;1.30;;
72575;SDS011;60613;48.658;2.328;2022-08-18T00:25:40;3.37;;;1.30;;
72575;SDS011;60613;48.658;2.328;2022-08-18T00:28:06;3.90;;;1.50;;
72575;SDS011;60613;48.658;2.328;2022-08-18T00:30:32;3.33;;;1.40;;
72575;SDS011;60613;48.658;2.328;2022-08-18T00:32:58;4.20;;;1.57;;
72575;SDS011;60613;48.658;2.328;2022-08-18T00:35:26;3.30;;;1.20;;
72575;SDS011;60613;48.658;2.328;2022-08-18T00:37:57;3.67;;;1.30;;
72575;SDS011;60613;48.658;2.328;2022-08-18T00:40:29;3.50;;;1.40;;
72575;SDS011;60613;48.658;2.328;2022-08-18T00:42:59;4.05;;;1.42;;
72575;SDS011;60613;48.658;2.328;2022-08-18T00:45:37;3.77;;;1.40;;
72575;SDS011;60613;48.658;2.328;2022-08-18T00:48:05;3.75;;;1.42;;
72575;SDS011;60613;48.658;2.328;2022-08-18T00:55:43;3.05;;;1.20;;
72575;SDS011;60613;48.658;2.328;2022-08-18T00:58:15;3.63;;;1.40;;
72575;SDS011;60613;48.658;2.328;2022-08-18T01:00:47;3.03;;;1.27;;
72575;SDS011;60613;48.658;2.328;2022-08-18T01:03:15;2.75;;;1.17;;
72575;SDS011;60613;48.658;2.328;2022-08-18T01:05:47;2.85;;;1.20;;
72575;SDS011;60613;48.658;2.328;2022-08-18T01:08:19;2.88;;;1.30;;
72575;SDS011;60613;48.658;2.328;2022-08-18T01:10:45;3.63;;;1.43;;
72575;SDS011;60613;48.658;2.328;2022-08-18T01:13:12;3.83;;;1.33;;
72575;SDS011;60613;48.658;2.328;2022-08-18T01:15:37;3.67;;;1.30;;
72575;SDS011;60613;48.658;2.328;2022-08-18T01:18:04;3.88;;;1.40;;
72575;SDS011;60613;48.658;2.328;2022-08-18T01:24:02;3.75;;;1.40;;
72575;SDS011;60613;48.658;2.328;2022-08-18T01:26:31;4.10;;;1.50;;
72575;SDS011;60613;48.658;2.328;2022-08-18T01:29:05;2.65;;;1.17;;
72575;SDS011;60613;48.658;2.328;2022-08-18T01:34:06;3.47;;;1.50;;
72575;SDS011;60613;48.658;2.328;2022-08-18T01:36:34;3.65;;;1.40;;
72575;SDS011;60613;48.658;2.328;2022-08-18T01:39:03;3.25;;;1.40;;
72575;SDS011;60613;48.658;2.328;2022-08-18T01:41:30;2.72;;;1.17;;
72575;SDS011;60613;48.658;2.328;2022-08-18T01:43:57;2.93;;;1.23;;
72575;SDS011;60613;48.658;2.328;2022-08-18T01:46:24;2.75;;;1.30;;
72575;SDS011;60613;48.658;2.328;2022-08-18T01:48:51;3.45;;;1.40;;
72575;SDS011;60613;48.658;2.328;2022-08-18T01:51:17;2.53;;;1.30;;
72575;SDS011;60613;48.658;2.328;2022-08-18T01:53:44;3.07;;;1.30;;
72575;SDS011;60613;48.658;2.328;2022-08-18T01:56:10;3.65;;;1.48;;
72575;SDS011;60613;48.658;2.328;2022-08-18T01:58:37;4.13;;;1.60;;
72575;SDS011;60613;48.658;2.328;2022-08-18T02:01:03;3.28;;;1.30;;
72575;SDS011;60613;48.658;2.328;2022-08-18T02:03:31;3.47;;;1.30;;
72575;SDS011;60613;48.658;2.328;2022-08-18T02:06:04;3.58;;;1.40;;
72575;SDS011;60613;48.658;2.328;2022-08-18T02:08:33;3.05;;;1.38;;
72575;SDS011;60613;48.658;2.328;2022-08-18T02:10:59;3.10;;;1.30;;
72575;SDS011;60613;48.658;2.328;2022-08-18T02:13:25;3.10;;;1.23;;
72575;SDS011;60613;48.658;2.328;2022-08-18T02:15:51;3.13;;;1.40;;
72575;SDS011;60613;48.658;2.328;2022-08-18T02:18:18;2.78;;;1.17;;
72575;SDS011;60613;48.658;2.328;2022-08-18T02:20:45;3.50;;;1.40;;
72575;SDS011;60613;48.658;2.328;2022-08-18T02:23:12;3.90;;;1.37;;
72575;SDS011;60613;48.658;2.328;2022-08-18T02:25:38;3.58;;;1.35;;
72575;SDS011;60613;48.658;2.328;2022-08-18T02:28:06;3.20;;;1.30;;
72575;SDS011;60613;48.658;2.328;2022-08-18T02:30:32;2.83;;;1.15;;
72575;SDS011;60613;48.658;2.328;2022-08-18T02:33:01;2.30;;;1.20;;
72575;SDS011;60613;48.658;2.328;2022-08-18T02:35:27;3.30;;;1.30;;
72575;SDS011;60613;48.658;2.328;2022-08-18T02:37:53;2.97;;;1.30;;
72575;SDS011;60613;48.658;2.328;2022-08-18T02:40:18;2.77;;;1.30;;
72575;SDS011;60613;48.658;2.328;2022-08-18T02:42:44;3.58;;;1.38;;
72575;SDS011;60613;48.658;2.328;2022-08-18T02:45:11;3.08;;;1.25;;
72575;SDS011;60613;48.658;2.328;2022-08-18T02:47:37;3.92;;;1.60;;
72575;SDS011;60613;48.658;2.328;2022-08-18T02:50:04;3.47;;;1.30;;
72575;SDS011;60613;48.658;2.328;2022-08-18T02:52:31;2.63;;;1.30;;
72575;SDS011;60613;48.658;2.328;2022-08-18T02:54:58;3.47;;;1.35;;
72575;SDS011;60613;48.658;2.328;2022-08-18T02:57:27;3.15;;;1.30;;
72575;SDS011;60613;48.658;2.328;2022-08-18T02:59:54;3.20;;;1.20;;
72575;SDS011;60613;48.658;2.328;2022-08-18T03:02:21;2.53;;;1.17;;
72575;SDS011;60613;48.658;2.328;2022-08-18T03:04:47;3.88;;;1.35;;
72575;SDS011;60613;48.658;2.328;2022-08-18T03:07:13;3.33;;;1.42;;
72575;SDS011;60613;48.658;2.328;2022-08-18T03:09:39;4.07;;;1.43;;
72575;SDS011;60613;48.658;2.328;2022-08-18T03:12:06;2.90;;;1.30;;
72575;SDS011;60613;48.658;2.328;2022-08-18T03:14:33;3.65;;;1.30;;
72575;SDS011;60613;48.658;2.328;2022-08-18T03:17:00;4.53;;;1.50;;
72575;SDS011;60613;48.658;2.328;2022-08-18T03:19:32;3.58;;;1.50;;
72575;SDS011;60613;48.658;2.328;2022-08-18T03:21:58;3.63;;;1.40;;
72575;SDS011;60613;48.658;2.328;2022-08-18T03:24:25;3.80;;;1.50;;
72575;SDS011;60613;48.658;2.328;2022-08-18T03:26:52;3.13;;;1.30;;
72575;SDS011;60613;48.658;2.328;2022-08-18T03:29:20;3.55;;;1.30;;
72575;SDS011;60613;48.658;2.328;2022-08-18T03:31:47;3.50;;;1.40;;
72575;SDS011;60613;48.658;2.328;2022-08-18T03:34:13;4.20;;;1.30;;
72575;SDS011;60613;48.658;2.328;2022-08-18T03:36:43;3.93;;;1.50;;
72575;SDS011;60613;48.658;2.328;2022-08-18T03:39:10;3.78;;;1.42;;
72575;SDS011;60613;48.658;2.328;2022-08-18T03:41:38;3.10;;;1.27;;
72575;SDS011;60613;48.658;2.328;2022-08-18T03:44:05;3.50;;;1.33;;
72575;SDS011;60613;48.658;2.328;2022-08-18T03:46:31;3.13;;;1.43;;
72575;SDS011;60613;48.658;2.328;2022-08-18T03:48:57;3.83;;;1.30;;
72575;SDS011;60613;48.658;2.328;2022-08-18T03:51:25;4.28;;;1.40;;
72575;SDS011;60613;48.658;2.328;2022-08-18T03:53:53;2.50;;;1.20;;
72575;SDS011;60613;48.658;2.328;2022-08-18T03:56:21;3.13;;;1.40;;
72575;SDS011;60613;48.658;2.328;2022-08-18T03:58:53;3.10;;;1.30;;
72575;SDS011;60613;48.658;2.328;2022-08-18T04:01:22;4.35;;;1.40;;
72575;SDS011;60613;48.658;2.328;2022-08-18T04:03:53;3.45;;;1.50;;
72575;SDS011;60613;48.658;2.328;2022-08-18T04:06:27;3.25;;;1.40;;
72575;SDS011;60613;48.658;2.328;2022-08-18T04:08:56;3.53;;;1.40;;
72575;SDS011;60613;48.658;2.328;2022-08-18T04:11:24;3.78;;;1.40;;
72575;SDS011;60613;48.658;2.328;2022-08-18T04:13:50;3.30;;;1.48;;
72575;SDS011;60613;48.658;2.328;2022-08-18T04:16:16;2.50;;;1.30;;
72575;SDS011;60613;48.658;2.328;2022-08-18T04:18:41;2.85;;;1.35;;
72575;SDS011;60613;48.658;2.328;2022-08-18T04:21:08;3.57;;;1.53;;
72575;SDS011;60613;48.658;2.328;2022-08-18T04:23:35;3.30;;;1.30;;
72575;SDS011;60613;48.658;2.328;2022-08-18T04:26:02;3.53;;;1.40;;
72575;SDS011;60613;48.658;2.328;2022-08-18T04:28:29;3.22;;;1.55;;
72575;SDS011;60613;48.658;2.328;2022-08-18T04:30:56;3.88;;;1.60;;
72575;SDS011;60613;48.658;2.328;2022-08-18T04:33:26;3.43;;;1.40;;
72575;SDS011;60613;48.658;2.328;2022-08-18T04:35:52;3.20;;;1.40;;
72575;SDS011;60613;48.658;2.328;2022-08-18T04:38:19;3.38;;;1.50;;
72575;SDS011;60613;48.658;2.328;2022-08-18T04:40:46;4.15;;;1.70;;
72575;SDS011;60613;48.658;2.328;2022-08-18T04:43:12;3.85;;;1.63;;
72575;SDS011;60613;48.658;2.328;2022-08-18T04:45:43;4.13;;;1.67;;
72575;SDS011;60613;48.658;2.328;2022-08-18T04:48:10;3.53;;;1.50;;
72575;SDS011;60613;48.658;2.328;2022-08-18T04:50:36;3.20;;;1.40;;
72575;SDS011;60613;48.658;2.328;2022-08-18T04:53:03;3.53;;;1.40;;
72575;SDS011;60613;48.658;2.328;2022-08-18T04:55:48;3.65;;;1.58;;
72575;SDS011;60613;48.658;2.328;2022-08-18T04:58:18;3.57;;;1.40;;
72575;SDS011;60613;48.658;2.328;2022-08-18T05:00:45;3.63;;;1.42;;
72575;SDS011;60613;48.658;2.328;2022-08-18T05:03:11;3.65;;;1.50;;
72575;SDS011;60613;48.658;2.328;2022-08-18T05:05:38;3.60;;;1.40;;
72575;SDS011;60613;48.658;2.328;2022-08-18T05:08:03;3.33;;;1.57;;
72575;SDS011;60613;48.658;2.328;2022-08-18T05:10:29;3.38;;;1.50;;
72575;SDS011;60613;48.658;2.328;2022-08-18T05:12:55;3.95;;;1.50;;
72575;SDS011;60613;48.658;2.328;2022-08-18T05:15:21;3.57;;;1.43;;
72575;SDS011;60613;48.658;2.328;2022-08-18T05:17:47;4.03;;;1.70;;
72575;SDS011;60613;48.658;2.328;2022-08-18T05:20:13;3.43;;;1.50;;
72575;SDS011;60613;48.658;2.328;2022-08-18T05:22:40;3.75;;;1.60;;
72575;SDS011;60613;48.658;2.328;2022-08-18T05:25:07;4.25;;;1.67;;
72575;SDS011;60613;48.658;2.328;2022-08-18T05:27:36;3.13;;;1.40;;
72575;SDS011;60613;48.658;2.328;2022-08-18T05:30:04;3.97;;;1.58;;
72575;SDS011;60613;48.658;2.328;2022-08-18T05:32:32;3.33;;;1.50;;
72575;SDS011;60613;48.658;2.328;2022-08-18T05:35:01;3.47;;;1.42;;
72575;SDS011;60613;48.658;2.328;2022-08-18T05:37:36;3.60;;;1.60;;
72575;SDS011;60613;48.658;2.328;2022-08-18T05:40:16;3.60;;;1.55;;
72575;SDS011;60613;48.658;2.328;2022-08-18T05:42:46;3.42;;;1.50;;
72575;SDS011;60613;48.658;2.328;2022-08-18T05:45:14;3.63;;;1.60;;
72575;SDS011;60613;48.658;2.328;2022-08-18T05:47:42;3.38;;;1.55;;
72575;SDS011;60613;48.658;2.328;2022-08-18T05:50:13;4.47;;;1.88;;
72575;SDS011;60613;48.658;2.328;2022-08-18T05:52:52;3.08;;;1.40;;
72575;SDS011;60613;48.658;2.328;2022-08-18T05:58:45;3.70;;;1.60;;
72575;SDS011;60613;48.658;2.328;2022-08-18T06:01:35;3.78;;;1.73;;
72575;SDS011;60613;48.658;2.328;2022-08-18T06:04:12;4.03;;;1.70;;
72575;SDS011;60613;48.658;2.328;2022-08-18T06:06:43;3.95;;;1.70;;
72575;SDS011;60613;48.658;2.328;2022-08-18T06:11:49;4.20;;;1.80;;
72575;SDS011;60613;48.658;2.328;2022-08-18T06:14:17;4.97;;;1.67;;
72575;SDS011;60613;48.658;2.328;2022-08-18T06:25:00;3.77;;;1.63;;
72575;SDS011;60613;48.658;2.328;2022-08-18T06:30:14;3.45;;;1.60;;
72575;SDS011;60613;48.658;2.328;2022-08-18T06:43:59;3.72;;;1.67;;
72575;SDS011;60613;48.658;2.328;2022-08-18T06:46:51;3.73;;;1.60;;
72575;SDS011;60613;48.658;2.328;2022-08-18T06:51:55;3.72;;;1.70;;
72575;SDS011;60613;48.658;2.328;2022-08-18T06:56:47;3.70;;;1.60;;
72575;SDS011;60613;48.658;2.328;2022-08-18T06:59:20;4.10;;;1.60;;
72575;SDS011;60613;48.658;2.328;2022-08-18T07:01:51;3.70;;;1.60;;
72575;SDS011;60613;48.658;2.328;2022-08-18T07:04:32;3.92;;;1.70;;
72575;SDS011;60613;48.658;2.328;2022-08-18T07:07:13;3.67;;;1.70;;
72575;SDS011;60613;48.658;2.328;2022-08-18T07:09:54;3.92;;;1.63;;
72575;SDS011;60613;48.658;2.328;2022-08-18T07:12:22;4.28;;;1.60;;
72575;SDS011;60613;48.658;2.328;2022-08-18T07:14:54;3.72;;;1.60;;
72575;SDS011;60613;48.658;2.328;2022-08-18T07:17:30;3.60;;;1.60;;
72575;SDS011;60613;48.658;2.328;2022-08-18T07:19:58;3.57;;;1.63;;
72575;SDS011;60613;48.658;2.328;2022-08-18T07:22:58;3.53;;;1.50;;
72575;SDS011;60613;48.658;2.328;2022-08-18T07:25:28;3.85;;;1.67;;
72575;SDS011;60613;48.658;2.328;2022-08-18T07:27:56;4.22;;;1.73;;
72575;SDS011;60613;48.658;2.328;2022-08-18T07:30:27;3.85;;;1.85;;
72575;SDS011;60613;48.658;2.328;2022-08-18T07:35:50;3.45;;;1.60;;
72575;SDS011;60613;48.658;2.328;2022-08-18T07:38:21;4.28;;;1.70;;
72575;SDS011;60613;48.658;2.328;2022-08-18T07:40:57;4.13;;;1.70;;
72575;SDS011;60613;48.658;2.328;2022-08-18T07:46:16;4.23;;;1.87;;
72575;SDS011;60613;48.658;2.328;2022-08-18T07:48:44;4.40;;;2.00;;
72575;SDS011;60613;48.658;2.328;2022-08-18T08:08:08;3.75;;;1.58;;
72575;SDS011;60613;48.658;2.328;2022-08-18T08:10:53;4.63;;;1.80;;
72575;SDS011;60613;48.658;2.328;2022-08-18T08:19:40;4.05;;;1.90;;
72575;SDS011;60613;48.658;2.328;2022-08-18T08:32:28;3.80;;;1.77;;
72575;SDS011;60613;48.658;2.328;2022-08-18T08:37:40;4.60;;;2.00;;
72575;SDS011;60613;48.658;2.328;2022-08-18T08:40:22;3.78;;;1.85;;
72575;SDS011;60613;48.658;2.328;2022-08-18T08:42:58;4.70;;;2.20;;
72575;SDS011;60613;48.658;2.328;2022-08-18T08:45:32;5.00;;;2.30;;
72575;SDS011;60613;48.658;2.328;2022-08-18T08:48:04;4.55;;;1.88;;
72575;SDS011;60613;48.658;2.328;2022-08-18T08:50:44;4.43;;;2.00;;
72575;SDS011;60613;48.658;2.328;2022-08-18T08:53:23;4.80;;;2.08;;
72575;SDS011;60613;48.658;2.328;2022-08-18T08:55:55;5.18;;;2.15;;
72575;SDS011;60613;48.658;2.328;2022-08-18T09:01:09;5.00;;;2.00;;
72575;SDS011;60613;48.658;2.328;2022-08-18T09:18:14;4.88;;;2.10;;
72575;SDS011;60613;48.658;2.328;2022-08-18T09:23:44;4.93;;;2.15;;
72575;SDS011;60613;48.658;2.328;2022-08-18T09:26:22;4.53;;;2.00;;
72575;SDS011;60613;48.658;2.328;2022-08-18T09:34:53;5.32;;;2.17;;
72575;SDS011;60613;48.658;2.328;2022-08-18T09:37:26;4.55;;;2.08;;
72575;SDS011;60613;48.658;2.328;2022-08-18T09:40:17;4.90;;;1.83;;
72575;SDS011;60613;48.658;2.328;2022-08-18T09:45:58;4.75;;;2.25;;
72575;SDS011;60613;48.658;2.328;2022-08-18T09:51:14;5.57;;;2.40;;
72575;SDS011;60613;48.658;2.328;2022-08-18T09:56:11;4.82;;;2.22;;
72575;SDS011;60613;48.658;2.328;2022-08-18T09:58:48;4.95;;;2.20;;
72575;SDS011;60613;48.658;2.328;2022-08-18T10:01:21;4.63;;;2.20;;
72575;SDS011;60613;48.658;2.328;2022-08-18T10:06:40;4.95;;;2.25;;
72575;SDS011;60613;48.658;2.328;2022-08-18T10:09:15;4.65;;;2.10;;
72575;SDS011;60613;48.658;2.328;2022-08-18T10:11:44;4.97;;;2.30;;
72575;SDS011;60613;48.658;2.328;2022-08-18T10:17:31;5.40;;;2.20;;
72575;SDS011;60613;48.658;2.328;2022-08-18T10:22:43;5.20;;;2.30;;
72575;SDS011;60613;48.658;2.328;2022-08-18T10:25:12;4.15;;;2.00;;
72575;SDS011;60613;48.658;2.328;2022-08-18T10:30:43;5.68;;;2.30;;
72575;SDS011;60613;48.658;2.328;2022-08-18T10:32:58;6.10;;;2.40;;
72575;SDS011;60613;48.658;2.328;2022-08-18T10:40:55;4.83;;;2.40;;
72575;SDS011;60613;48.658;2.328;2022-08-18T10:43:36;4.88;;;2.35;;
72575;SDS011;60613;48.658;2.328;2022-08-18T10:46:12;4.55;;;2.00;;
72575;SDS011;60613;48.658;2.328;2022-08-18T10:48:40;5.28;;;2.50;;
72575;SDS011;60613;48.658;2.328;2022-08-18T10:54:12;4.97;;;2.33;;
72575;SDS011;60613;48.658;2.328;2022-08-18T10:56:55;5.28;;;2.30;;
72575;SDS011;60613;48.658;2.328;2022-08-18T11:04:45;5.80;;;2.50;;
72575;SDS011;60613;48.658;2.328;2022-08-18T11:07:24;4.95;;;2.35;;
72575;SDS011;60613;48.658;2.328;2022-08-18T11:09:52;5.55;;;2.42;;
72575;SDS011;60613;48.658;2.328;2022-08-18T11:20:39;5.10;;;2.40;;
72575;SDS011;60613;48.658;2.328;2022-08-18T11:23:10;5.35;;;2.50;;
72575;SDS011;60613;48.658;2.328;2022-08-18T11:25:38;4.78;;;2.20;;
72575;SDS011;60613;48.658;2.328;2022-08-18T11:28:19;4.87;;;2.23;;
72575;SDS011;60613;48.658;2.328;2022-08-18T11:30:48;5.95;;;2.30;;
72575;SDS011;60613;48.658;2.328;2022-08-18T11:33:17;4.75;;;2.30;;
72575;SDS011;60613;48.658;2.328;2022-08-18T11:35:48;4.82;;;2.28;;
72575;SDS011;60613;48.658;2.328;2022-08-18T11:38:16;4.95;;;2.20;;
72575;SDS011;60613;48.658;2.328;2022-08-18T11:40:46;5.63;;;2.40;;
72575;SDS011;60613;48.658;2.328;2022-08-18T11:45:55;5.07;;;2.28;;
72575;SDS011;60613;48.658;2.328;2022-08-18T11:56:03;5.32;;;2.50;;
72575;SDS011;60613;48.658;2.328;2022-08-18T12:01:04;4.80;;;2.40;;
72575;SDS011;60613;48.658;2.328;2022-08-18T12:03:38;4.88;;;2.33;;
72575;SDS011;60613;48.658;2.328;2022-08-18T12:06:12;6.13;;;2.50;;
72575;SDS011;60613;48.658;2.328;2022-08-18T12:08:54;4.90;;;2.33;;
72575;SDS011;60613;48.658;2.328;2022-08-18T12:11:21;5.20;;;2.40;;
72575;SDS011;60613;48.658;2.328;2022-08-18T12:13:56;5.70;;;2.37;;
72575;SDS011;60613;48.658;2.328;2022-08-18T12:16:31;4.68;;;2.17;;
72575;SDS011;60613;48.658;2.328;2022-08-18T12:19:06;5.13;;;2.42;;
72575;SDS011;60613;48.658;2.328;2022-08-18T12:21:41;4.75;;;2.20;;
72575;SDS011;60613;48.658;2.328;2022-08-18T12:24:18;4.78;;;2.28;;
72575;SDS011;60613;48.658;2.328;2022-08-18T12:26:49;4.90;;;2.37;;
72575;SDS011;60613;48.658;2.328;2022-08-18T12:29:16;5.40;;;2.47;;
72575;SDS011;60613;48.658;2.328;2022-08-18T12:31:47;4.97;;;2.40;;
72575;SDS011;60613;48.658;2.328;2022-08-18T12:34:18;4.90;;;2.17;;
72575;SDS011;60613;48.658;2.328;2022-08-18T12:36:48;4.88;;;2.30;;
72575;SDS011;60613;48.658;2.328;2022-08-18T12:39:15;4.97;;;2.20;;
72575;SDS011;60613;48.658;2.328;2022-08-18T12:41:41;4.45;;;2.05;;
72575;SDS011;60613;48.658;2.328;2022-08-18T12:44:07;5.18;;;2.30;;
72575;SDS011;60613;48.658;2.328;2022-08-18T12:46:32;5.23;;;2.30;;
72575;SDS011;60613;48.658;2.328;2022-08-18T12:48:58;4.70;;;2.20;;
72575;SDS011;60613;48.658;2.328;2022-08-18T12:51:25;4.97;;;2.13;;
72575;SDS011;60613;48.658;2.328;2022-08-18T12:53:50;5.00;;;2.20;;
72575;SDS011;60613;48.658;2.328;2022-08-18T12:58:48;4.75;;;2.13;;
72575;SDS011;60613;48.658;2.328;2022-08-18T13:01:14;4.43;;;2.07;;
72575;SDS011;60613;48.658;2.328;2022-08-18T13:03:41;4.57;;;2.20;;
72575;SDS011;60613;48.658;2.328;2022-08-18T13:06:09;5.35;;;2.25;;
72575;SDS011;60613;48.658;2.328;2022-08-18T13:08:35;5.15;;;2.17;;
72575;SDS011;60613;48.658;2.328;2022-08-18T13:11:01;4.82;;;2.05;;
72575;SDS011;60613;48.658;2.328;2022-08-18T13:13:29;5.30;;;2.20;;
72575;SDS011;60613;48.658;2.328;2022-08-18T13:15:55;4.70;;;2.10;;
72575;SDS011;60613;48.658;2.328;2022-08-18T13:18:21;5.22;;;2.40;;
72575;SDS011;60613;48.658;2.328;2022-08-18T13:20:47;4.70;;;2.10;;
72575;SDS011;60613;48.658;2.328;2022-08-18T13:23:13;5.03;;;2.20;;
72575;SDS011;60613;48.658;2.328;2022-08-18T13:25:38;5.35;;;2.10;;
72575;SDS011;60613;48.658;2.328;2022-08-18T13:28:05;4.63;;;2.10;;
72575;SDS011;60613;48.658;2.328;2022-08-18T13:30:31;4.35;;;2.17;;
72575;SDS011;60613;48.658;2.328;2022-08-18T13:32:57;4.80;;;2.10;;
72575;SDS011;60613;48.658;2.328;2022-08-18T13:35:23;4.53;;;2.10;;
72575;SDS011;60613;48.658;2.328;2022-08-18T13:37:49;5.13;;;2.13;;
72575;SDS011;60613;48.658;2.328;2022-08-18T13:40:14;4.90;;;2.28;;
72575;SDS011;60613;48.658;2.328;2022-08-18T13:42:45;4.50;;;2.10;;
72575;SDS011;60613;48.658;2.328;2022-08-18T13:45:13;4.78;;;2.20;;
72575;SDS011;60613;48.658;2.328;2022-08-18T13:47:41;4.70;;;2.10;;
72575;SDS011;60613;48.658;2.328;2022-08-18T13:50:07;4.63;;;2.20;;
72575;SDS011;60613;48.658;2.328;2022-08-18T13:52:34;4.83;;;2.40;;
72575;SDS011;60613;48.658;2.328;2022-08-18T13:55:01;4.93;;;2.20;;
72575;SDS011;60613;48.658;2.328;2022-08-18T13:57:28;5.63;;;2.33;;
72575;SDS011;60613;48.658;2.328;2022-08-18T13:59:55;5.38;;;2.22;;
72575;SDS011;60613;48.658;2.328;2022-08-18T14:02:21;5.32;;;2.20;;
72575;SDS011;60613;48.658;2.328;2022-08-18T14:04:47;4.30;;;2.13;;
72575;SDS011;60613;48.658;2.328;2022-08-18T14:07:13;5.03;;;2.10;;
72575;SDS011;60613;48.658;2.328;2022-08-18T14:09:41;4.93;;;2.10;;
72575;SDS011;60613;48.658;2.328;2022-08-18T14:12:11;4.83;;;2.20;;
72575;SDS011;60613;48.658;2.328;2022-08-18T14:14:44;4.07;;;2.00;;
72575;SDS011;60613;48.658;2.328;2022-08-18T14:17:10;4.85;;;2.10;;
72575;SDS011;60613;48.658;2.328;2022-08-18T14:19:36;5.30;;;2.27;;
72575;SDS011;60613;48.658;2.328;2022-08-18T14:22:20;5.20;;;2.38;;
72575;SDS011;60613;48.658;2.328;2022-08-18T14:25:04;4.38;;;2.03;;
72575;SDS011;60613;48.658;2.328;2022-08-18T14:27:48;5.68;;;2.50;;
72575;SDS011;60613;48.658;2.328;2022-08-18T14:30:14;4.87;;;2.23;;
72575;SDS011;60613;48.658;2.328;2022-08-18T14:32:42;5.47;;;2.13;;
72575;SDS011;60613;48.658;2.328;2022-08-18T14:35:09;4.53;;;2.13;;
72575;SDS011;60613;48.658;2.328;2022-08-18T14:37:36;4.63;;;2.10;;
72575;SDS011;60613;48.658;2.328;2022-08-18T14:40:03;5.40;;;2.20;;
72575;SDS011;60613;48.658;2.328;2022-08-18T14:42:31;4.50;;;2.05;;
72575;SDS011;60613;48.658;2.328;2022-08-18T14:44:57;4.68;;;2.20;;
72575;SDS011;60613;48.658;2.328;2022-08-18T14:47:23;5.23;;;2.20;;
72575;SDS011;60613;48.658;2.328;2022-08-18T14:49:51;4.45;;;2.20;;
72575;SDS011;60613;48.658;2.328;2022-08-18T14:52:17;4.72;;;2.13;;
72575;SDS011;60613;48.658;2.328;2022-08-18T14:54:45;4.63;;;2.20;;
72575;SDS011;60613;48.658;2.328;2022-08-18T14:57:10;4.47;;;2.20;;
72575;SDS011;60613;48.658;2.328;2022-08-18T14:59:36;4.03;;;2.00;;
72575;SDS011;60613;48.658;2.328;2022-08-18T15:02:02;4.90;;;2.20;;
72575;SDS011;60613;48.658;2.328;2022-08-18T15:04:29;5.35;;;2.40;;
72575;SDS011;60613;48.658;2.328;2022-08-18T15:06:54;4.82;;;2.30;;
72575;SDS011;60613;48.658;2.328;2022-08-18T15:09:20;4.73;;;2.27;;
72575;SDS011;60613;48.658;2.328;2022-08-18T15:11:46;5.70;;;2.25;;
72575;SDS011;60613;48.658;2.328;2022-08-18T15:14:13;4.80;;;2.35;;
72575;SDS011;60613;48.658;2.328;2022-08-18T15:16:41;4.60;;;2.20;;
72575;SDS011;60613;48.658;2.328;2022-08-18T15:19:06;4.70;;;2.03;;
72575;SDS011;60613;48.658;2.328;2022-08-18T15:21:32;5.10;;;2.30;;
72575;SDS011;60613;48.658;2.328;2022-08-18T15:24:16;5.03;;;2.30;;
72575;SDS011;60613;48.658;2.328;2022-08-18T15:27:00;4.63;;;2.20;;
72575;SDS011;60613;48.658;2.328;2022-08-18T15:29:30;4.82;;;2.08;;
72575;SDS011;60613;48.658;2.328;2022-08-18T15:31:56;4.38;;;2.00;;
72575;SDS011;60613;48.658;2.328;2022-08-18T15:34:22;4.80;;;2.10;;
72575;SDS011;60613;48.658;2.328;2022-08-18T15:36:48;5.28;;;2.35;;
72575;SDS011;60613;48.658;2.328;2022-08-18T15:39:14;4.40;;;2.10;;
72575;SDS011;60613;48.658;2.328;2022-08-18T15:41:42;4.90;;;2.30;;
72575;SDS011;60613;48.658;2.328;2022-08-18T15:44:10;4.93;;;2.10;;
72575;SDS011;60613;48.658;2.328;2022-08-18T15:46:38;5.68;;;2.33;;
72575;SDS011;60613;48.658;2.328;2022-08-18T15:49:04;4.80;;;2.13;;
72575;SDS011;60613;48.658;2.328;2022-08-18T15:51:35;5.67;;;2.20;;
72575;SDS011;60613;48.658;2.328;2022-08-18T15:54:03;4.78;;;2.13;;
72575;SDS011;60613;48.658;2.328;2022-08-18T15:56:29;5.03;;;2.00;;
72575;SDS011;60613;48.658;2.328;2022-08-18T15:58:56;4.55;;;2.10;;
72575;SDS011;60613;48.658;2.328;2022-08-18T16:01:22;4.47;;;2.15;;
72575;SDS011;60613;48.658;2.328;2022-08-18T16:03:49;4.93;;;2.37;;
72575;SDS011;60613;48.658;2.328;2022-08-18T16:06:16;4.35;;;2.03;;
72575;SDS011;60613;48.658;2.328;2022-08-18T16:08:43;5.00;;;2.20;;
72575;SDS011;60613;48.658;2.328;2022-08-18T16:11:10;4.30;;;2.00;;
72575;SDS011;60613;48.658;2.328;2022-08-18T16:13:37;6.55;;;2.22;;
72575;SDS011;60613;48.658;2.328;2022-08-18T16:16:07;4.82;;;2.20;;
72575;SDS011;60613;48.658;2.328;2022-08-18T16:18:42;5.57;;;2.10;;
72575;SDS011;60613;48.658;2.328;2022-08-18T16:21:13;4.32;;;2.10;;
72575;SDS011;60613;48.658;2.328;2022-08-18T16:23:42;4.50;;;2.00;;
72575;SDS011;60613;48.658;2.328;2022-08-18T16:26:11;5.53;;;2.10;;
72575;SDS011;60613;48.658;2.328;2022-08-18T16:28:39;5.95;;;2.15;;
72575;SDS011;60613;48.658;2.328;2022-08-18T16:31:05;5.70;;;2.20;;
72575;SDS011;60613;48.658;2.328;2022-08-18T16:33:32;5.20;;;2.17;;
72575;SDS011;60613;48.658;2.328;2022-08-18T16:36:05;5.53;;;2.40;;
72575;SDS011;60613;48.658;2.328;2022-08-18T16:38:33;5.15;;;2.30;;
72575;SDS011;60613;48.658;2.328;2022-08-18T16:41:06;5.00;;;2.22;;
72575;SDS011;60613;48.658;2.328;2022-08-18T16:43:33;4.85;;;2.10;;
72575;SDS011;60613;48.658;2.328;2022-08-18T16:46:00;4.43;;;2.10;;
72575;SDS011;60613;48.658;2.328;2022-08-18T16:48:29;5.40;;;2.20;;
72575;SDS011;60613;48.658;2.328;2022-08-18T16:50:55;5.97;;;2.30;;
72575;SDS011;60613;48.658;2.328;2022-08-18T16:53:21;5.10;;;2.28;;
72575;SDS011;60613;48.658;2.328;2022-08-18T16:55:47;5.53;;;2.33;;
72575;SDS011;60613;48.658;2.328;2022-08-18T16:58:13;5.43;;;2.10;;
72575;SDS011;60613;48.658;2.328;2022-08-18T17:00:58;5.70;;;2.03;;
72575;SDS011;60613;48.658;2.328;2022-08-18T17:03:42;5.70;;;2.45;;
72575;SDS011;60613;48.658;2.328;2022-08-18T17:06:26;4.93;;;2.17;;
72575;SDS011;60613;48.658;2.328;2022-08-18T17:08:56;5.60;;;2.20;;
72575;SDS011;60613;48.658;2.328;2022-08-18T17:11:22;4.77;;;2.10;;
72575;SDS011;60613;48.658;2.328;2022-08-18T17:13:55;5.85;;;2.28;;
72575;SDS011;60613;48.658;2.328;2022-08-18T17:16:24;5.07;;;2.17;;
72575;SDS011;60613;48.658;2.328;2022-08-18T17:18:51;5.72;;;2.42;;
72575;SDS011;60613;48.658;2.328;2022-08-18T17:21:20;6.35;;;2.40;;
72575;SDS011;60613;48.658;2.328;2022-08-18T17:23:48;5.27;;;2.17;;
72575;SDS011;60613;48.658;2.328;2022-08-18T17:26:16;5.88;;;2.38;;
72575;SDS011;60613;48.658;2.328;2022-08-18T17:31:32;5.30;;;2.30;;
72575;SDS011;60613;48.658;2.328;2022-08-18T17:34:01;6.45;;;2.70;;
72575;SDS011;60613;48.658;2.328;2022-08-18T17:36:35;5.67;;;2.20;;
72575;SDS011;60613;48.658;2.328;2022-08-18T17:39:12;6.18;;;2.40;;
72575;SDS011;60613;48.658;2.328;2022-08-18T17:41:41;6.03;;;2.40;;
72575;SDS011;60613;48.658;2.328;2022-08-18T17:44:26;5.88;;;2.40;;
72575;SDS011;60613;48.658;2.328;2022-08-18T17:46:52;5.13;;;2.33;;
72575;SDS011;60613;48.658;2.328;2022-08-18T17:52:19;5.78;;;2.08;;
72575;SDS011;60613;48.658;2.328;2022-08-18T17:54:49;5.63;;;2.30;;
72575;SDS011;60613;48.658;2.328;2022-08-18T17:57:21;5.87;;;2.30;;